Time;durP1;ratioP1;P1;durP2;ratioP2;P2;SDS_P1;SDS_P2;PMS_P1;PMS_P2;Temp;Humidity;BMP_temperature;BMP_pressure;BME280_temperature;BME280_humidity;BME280_pressure;Samples;Min_cycle;Max_cycle;Signal;HPM_P1;HPM_P2
2021/10/26 00:00:09;;;;;;;60.33;30.57;;;;;;;3.19;79.24;101537.23;1811780;79;21066;-83
2021/10/26 00:02:37;;;;;;;60.45;31.60;;;;;;;3.18;79.16;101532.44;1811407;79;21027;-83
2021/10/26 00:05:06;;;;;;;60.05;31.77;;;;;;;3.19;79.21;101531.65;1811863;79;21001;-83
2021/10/26 00:07:33;;;;;;;52.83;31.70;;;;;;;3.18;79.19;101532.44;1778520;79;21745;-82
2021/10/26 00:10:12;;;;;;;59.83;30.77;;;;;;;3.18;79.18;101535.44;1793230;79;21090;-82
2021/10/26 00:12:42;;;;;;;51.77;30.95;;;;;;;3.14;79.13;101534.34;1751415;80;21030;-82
2021/10/26 00:15:15;;;;;;;49.13;28.98;;;;;;;3.14;79.28;101529.54;1751525;80;21055;-82
2021/10/26 00:17:39;;;;;;;43.17;27.42;;;;;;;3.15;79.43;101527.02;1785960;79;20991;-82
2021/10/26 00:20:10;;;;;;;44.77;28.30;;;;;;;3.18;79.48;101531.13;1786723;80;21708;-82
2021/10/26 00:22:35;;;;;;;39.83;26.23;;;;;;;3.18;79.55;101528.53;1786430;80;21054;-82
2021/10/26 00:25:02;;;;;;;46.75;28.35;;;;;;;3.21;79.62;101530.05;1786468;80;21061;-83
2021/10/26 00:27:28;;;;;;;46.80;27.73;;;;;;;3.23;79.67;101524.55;1786655;80;21028;-82
2021/10/26 00:29:55;;;;;;;45.45;27.07;;;;;;;3.26;79.66;101527.73;1786699;80;21096;-82
2021/10/26 00:32:22;;;;;;;40.28;26.23;;;;;;;3.25;79.61;101533.36;1786722;79;22626;-82
2021/10/26 00:34:49;;;;;;;43.80;27.27;;;;;;;3.27;79.71;101525.66;1786545;80;21618;-82
2021/10/26 00:37:15;;;;;;;42.58;27.20;;;;;;;3.28;79.70;101528.37;1786535;79;21034;-83
2021/10/26 00:39:42;;;;;;;46.35;26.82;;;;;;;3.31;79.75;101515.54;1786304;80;21136;-83
2021/10/26 00:42:14;;;;;;;42.60;26.60;;;;;;;3.33;79.67;101518.66;1789393;79;21061;-83
2021/10/26 00:44:40;;;;;;;49.08;27.62;;;;;;;3.26;79.69;101499.13;1790419;79;22093;-83
2021/10/26 00:47:07;;;;;;;40.75;25.15;;;;;;;3.36;79.74;101509.36;1790589;80;21599;-82
2021/10/26 00:49:35;;;;;;;45.20;26.20;;;;;;;3.38;79.69;101509.43;1790219;80;21073;-81
2021/10/26 00:52:03;;;;;;;43.70;26.62;;;;;;;3.39;79.67;101516.45;1759668;80;21041;-82
2021/10/26 00:54:30;;;;;;;45.30;26.82;;;;;;;3.38;79.70;101516.86;1790339;80;21062;-82
2021/10/26 00:56:58;;;;;;;45.28;26.37;;;;;;;3.39;79.77;101518.64;1790369;80;21786;-82
2021/10/26 00:59:25;;;;;;;45.85;28.98;;;;;;;3.41;79.79;101522.25;1731867;78;21070;-82
2021/10/26 01:01:51;;;;;;;41.65;26.73;;;;;;;3.45;79.95;101519.45;1790307;80;21108;-82
2021/10/26 01:04:18;;;;;;;42.75;27.55;;;;;;;3.49;79.91;101511.03;1790387;78;21592;-83
2021/10/26 01:06:50;;;;;;;41.25;27.00;;;;;;;3.52;79.92;101505.16;1789852;80;21587;-82
2021/10/26 01:09:16;;;;;;;46.50;26.23;;;;;;;3.55;79.89;101505.33;1790484;79;21800;-82
2021/10/26 01:11:47;;;;;;;43.65;24.85;;;;;;;3.58;79.96;101501.23;1789954;78;21046;-82
2021/10/26 01:14:15;;;;;;;43.38;26.70;;;;;;;3.61;79.87;101503.16;1790556;78;21122;-82
2021/10/26 01:16:44;;;;;;;39.18;25.88;;;;;;;3.63;79.81;101504.16;1755328;80;21563;-82
2021/10/26 01:19:10;;;;;;;44.75;27.07;;;;;;;3.65;79.83;101505.14;1790468;79;20981;-82
2021/10/26 01:21:39;;;;;;;39.78;24.40;;;;;;;3.67;79.84;101508.34;1759244;80;21587;-82
2021/10/26 01:24:06;;;;;;;44.63;26.35;;;;;;;3.71;79.84;101501.63;1790568;79;21449;-83
2021/10/26 01:26:33;;;;;;;36.70;23.85;;;;;;;3.75;79.84;101501.02;1790670;80;21072;-83
2021/10/26 01:29:00;;;;;;;39.13;25.27;;;;;;;3.76;79.75;101505.85;1790509;80;21567;-83
2021/10/26 01:31:29;;;;;;;39.30;25.75;;;;;;;3.79;79.82;101502.13;1790149;80;21062;-82
2021/10/26 01:33:55;;;;;;;56.13;28.67;;;;;;;3.81;79.79;101494.00;1790677;80;21754;-81
2021/10/26 01:36:22;;;;;;;55.98;30.45;;;;;;;3.85;79.76;101498.63;1790748;80;21037;-83
2021/10/26 01:38:51;;;;;;;66.28;33.08;;;;;;;3.88;79.75;101500.11;1790441;80;21089;-83
2021/10/26 01:41:19;;;;;;;68.62;34.50;;;;;;;3.91;79.73;101495.11;1789160;78;21058;-83
2021/10/26 01:43:53;;;;;;;62.73;33.30;;;;;;;3.93;79.73;101490.89;1786641;80;21046;-83
2021/10/26 01:46:15;;;;;;;65.03;32.70;;;;;;;3.98;79.71;101496.00;1784427;80;21796;-82
2021/10/26 01:48:42;;;;;;;72.40;35.15;;;;;;;4.02;79.66;101492.78;1786657;80;21046;-82
2021/10/26 01:51:11;;;;;;;96.97;43.45;;;;;;;4.04;79.63;101496.80;1786478;79;21019;-82
2021/10/26 01:53:40;;;;;;;73.00;35.88;;;;;;;4.07;79.58;101499.57;1785838;79;21027;-82
2021/10/26 01:56:07;;;;;;;47.83;27.87;;;;;;;4.08;79.48;101493.57;1786883;79;21481;-83
2021/10/26 01:58:33;;;;;;;43.73;26.57;;;;;;;4.08;79.42;101493.16;1786924;79;21759;-82
2021/10/26 02:01:00;;;;;;;48.87;26.65;;;;;;;4.12;79.49;101492.95;1786637;80;21543;-81
2021/10/26 02:03:27;;;;;;;48.85;27.58;;;;;;;4.11;79.37;101489.87;1786640;79;21061;-82
2021/10/26 02:05:53;;;;;;;45.20;25.82;;;;;;;4.13;79.42;101476.91;1786468;79;21277;-83
2021/10/26 02:08:20;;;;;;;49.30;25.85;;;;;;;4.15;79.43;101474.92;1786630;79;21058;-83
2021/10/26 02:10:47;;;;;;;49.98;25.37;;;;;;;4.16;79.35;101471.49;1786145;79;21871;-83
2021/10/26 02:13:17;;;;;;;44.95;26.50;;;;;;;4.18;79.36;101475.09;1786738;79;21038;-83
2021/10/26 02:15:43;;;;;;;52.33;27.07;;;;;;;4.20;79.38;101469.56;1786652;80;21505;-82
2021/10/26 02:18:10;;;;;;;43.10;26.65;;;;;;;4.22;79.36;101467.06;1786792;79;21582;-82
2021/10/26 02:20:40;;;;;;;45.38;26.27;;;;;;;4.23;79.36;101467.16;1786538;80;21065;-82
2021/10/26 02:23:07;;;;;;;42.53;23.75;;;;;;;4.25;79.33;101468.57;1751015;80;21082;-82
2021/10/26 02:25:34;;;;;;;45.83;25.12;;;;;;;4.26;79.26;101458.24;1786410;79;21000;-76
2021/10/26 02:28:00;;;;;;;48.25;26.10;;;;;;;4.26;79.30;101464.76;1786473;79;21069;-81
2021/10/26 02:30:27;;;;;;;40.15;24.27;;;;;;;4.28;79.25;101463.56;1786657;80;21604;-81
2021/10/26 02:32:53;;;;;;;43.87;24.52;;;;;;;4.26;79.25;101458.24;1786588;79;22189;-82
2021/10/26 02:35:20;;;;;;;34.58;23.07;;;;;;;4.28;79.31;101455.73;1786600;80;21784;-82
2021/10/26 02:37:47;;;;;;;39.85;24.18;;;;;;;4.27;79.21;101455.22;1786644;79;21049;-81
2021/10/26 02:40:14;;;;;;;39.00;23.75;;;;;;;4.27;79.25;101455.22;1786639;79;21053;-81
2021/10/26 02:42:41;;;;;;;39.70;23.65;;;;;;;4.27;79.28;101447.41;1788883;80;21297;-82
2021/10/26 02:45:08;;;;;;;36.85;23.73;;;;;;;4.28;79.28;101450.11;1790625;80;21062;-82
2021/10/26 02:47:35;;;;;;;40.48;23.35;;;;;;;4.28;79.33;101442.30;1790589;79;21770;-82
2021/10/26 02:50:02;;;;;;;37.17;22.40;;;;;;;4.32;79.35;101447.67;1790663;80;21030;-81
2021/10/26 02:52:30;;;;;;;40.25;23.75;;;;;;;4.34;79.36;101452.61;1790641;78;21062;-81
2021/10/26 02:54:58;;;;;;;38.28;22.82;;;;;;;4.35;79.40;101442.25;1790362;78;21581;-81
2021/10/26 02:57:25;;;;;;;34.70;22.93;;;;;;;4.37;79.33;101452.36;1790754;80;21611;-81
2021/10/26 02:59:53;;;;;;;41.23;23.90;;;;;;;4.37;79.30;101451.47;1790576;80;21904;-82
2021/10/26 03:02:20;;;;;;;39.80;23.30;;;;;;;4.39;79.32;101455.07;1790248;78;21058;-80
2021/10/26 03:04:46;;;;;;;36.10;23.18;;;;;;;4.37;79.27;101456.69;1810199;78;21560;-82
2021/10/26 03:07:15;;;;;;;37.25;22.45;;;;;;;4.36;79.28;101461.42;1771564;80;21647;-82
2021/10/26 03:09:42;;;;;;;35.95;22.37;;;;;;;4.34;79.30;101462.62;1790501;79;21074;-82
2021/10/26 03:12:09;;;;;;;36.17;22.82;;;;;;;4.35;79.30;101462.21;1790471;80;21759;-81
2021/10/26 03:14:36;;;;;;;39.20;22.42;;;;;;;4.35;79.27;101466.12;1790349;80;21051;-81
2021/10/26 03:17:03;;;;;;;34.20;22.45;;;;;;;4.38;79.45;101465.02;1790488;80;21031;-81
2021/10/26 03:19:30;;;;;;;33.80;22.22;;;;;;;4.40;79.40;101457.78;1790447;79;21066;-82
2021/10/26 03:21:57;;;;;;;38.75;22.45;;;;;;;4.44;79.42;101460.17;1790522;79;21027;-82
2021/10/26 03:24:23;;;;;;;35.73;21.85;;;;;;;4.44;79.35;101460.17;1758631;81;22484;-82
2021/10/26 03:26:55;;;;;;;37.50;23.77;;;;;;;4.47;79.36;101466.89;1790498;79;21643;-81
2021/10/26 03:29:19;;;;;;;41.55;23.00;;;;;;;4.46;79.21;101463.77;1789920;79;21042;-81
2021/10/26 03:31:49;;;;;;;38.20;22.32;;;;;;;4.43;79.09;101450.53;1790444;79;21066;-82
2021/10/26 03:34:18;;;;;;;34.67;20.82;;;;;;;4.40;79.04;101454.28;1790380;79;21121;-82
2021/10/26 03:36:43;;;;;;;33.75;21.35;;;;;;;4.35;79.05;101450.48;1790212;79;21972;-82
2021/10/26 03:39:13;;;;;;;32.80;20.75;;;;;;;4.34;79.16;101456.11;1770349;81;21014;-82
2021/10/26 03:41:39;;;;;;;35.55;21.82;;;;;;;4.33;79.16;101454.29;1757817;81;20995;-82
2021/10/26 03:44:09;;;;;;;36.25;21.85;;;;;;;4.31;79.12;101456.31;1784146;80;22623;-82
2021/10/26 03:46:36;;;;;;;33.28;20.82;;;;;;;4.28;79.10;101460.54;1767812;80;21009;-80
2021/10/26 03:49:06;;;;;;;33.05;21.12;;;;;;;4.23;79.01;101459.76;1731692;81;22617;-79
2021/10/26 03:51:36;;;;;;;35.40;22.55;;;;;;;4.17;78.99;101451.16;1758614;80;21066;-82
2021/10/26 03:54:02;;;;;;;36.60;22.45;;;;;;;4.11;79.00;101452.09;1753177;81;21070;-81
2021/10/26 03:56:29;;;;;;;41.20;27.90;;;;;;;4.06;79.00;101450.48;1754167;80;21058;-80
2021/10/26 03:58:57;;;;;;;44.08;26.85;;;;;;;4.02;79.11;101448.50;1751096;81;21043;-79
2021/10/26 04:01:25;;;;;;;44.13;25.82;;;;;;;3.97;79.15;101447.30;1751063;81;21867;-79
2021/10/26 04:03:55;;;;;;;37.73;24.35;;;;;;;3.94;79.28;101447.13;1750996;81;21110;-80
2021/10/26 04:06:24;;;;;;;34.83;21.52;;;;;;;3.92;79.30;101439.59;1751107;81;21743;-81
2021/10/26 04:11:22;;;;;;;30.40;19.90;;;;;;;3.87;79.52;101440.62;1751132;81;21106;-81
2021/10/26 04:13:50;;;;;;;32.00;20.05;;;;;;;3.87;79.54;101434.52;1731642;81;21071;-78
2021/10/26 04:16:20;;;;;;;33.18;19.80;;;;;;;3.85;79.58;101439.63;1751059;81;21110;-79
2021/10/26 04:18:47;;;;;;;35.75;19.20;;;;;;;3.82;79.71;101439.42;1751186;81;21620;-78
2021/10/26 04:21:17;;;;;;;31.87;18.80;;;;;;;3.78;79.71;101432.63;1731366;81;21031;-78
2021/10/26 04:23:53;;;;;;;35.08;18.52;;;;;;;3.75;79.84;101433.31;1751094;81;21116;-80
2021/10/26 04:26:23;;;;;;;34.23;19.50;;;;;;;3.75;79.91;101429.82;1733028;81;21941;-79
2021/10/26 04:28:49;;;;;;;30.65;19.23;;;;;;;3.70;79.88;101428.25;1751168;81;21068;-79
2021/10/26 04:31:16;;;;;;;36.25;18.95;;;;;;;3.66;79.93;101422.31;1751194;81;21079;-80
2021/10/26 04:33:44;;;;;;;31.73;18.92;;;;;;;3.66;80.12;101425.84;1750753;81;22228;-79
2021/10/26 04:36:11;;;;;;;33.18;19.45;;;;;;;3.67;80.20;101422.42;1751407;81;21047;-81
2021/10/26 04:38:40;;;;;;;30.05;18.17;;;;;;;3.69;80.40;101417.31;1751273;81;21902;-81
2021/10/26 04:41:12;;;;;;;34.60;19.30;;;;;;;3.74;80.67;101417.22;1751292;81;21066;-73
2021/10/26 04:43:36;;;;;;;36.77;19.45;;;;;;;3.82;80.77;101413.79;1753512;81;21128;-73
2021/10/26 04:46:03;;;;;;;29.45;18.12;;;;;;;3.87;80.82;101413.69;1756934;81;21110;-73
2021/10/26 04:48:30;;;;;;;30.30;18.35;;;;;;;3.90;80.78;101413.85;1756758;81;21066;-73
2021/10/26 04:50:57;;;;;;;28.73;17.75;;;;;;;3.95;80.91;101412.86;1756820;81;21793;-73
2021/10/26 04:53:24;;;;;;;26.73;16.95;;;;;;;3.98;80.94;101412.65;1756952;81;21054;-73
2021/10/26 04:55:53;;;;;;;28.85;18.32;;;;;;;4.04;80.93;101416.92;1740536;81;21058;-73
2021/10/26 04:58:19;;;;;;;34.63;19.98;;;;;;;4.06;80.91;101412.70;1696015;83;21596;-73
2021/10/26 05:00:46;;;;;;;33.98;19.82;;;;;;;4.07;80.90;101414.91;1748907;81;21082;-73
2021/10/26 05:03:13;;;;;;;47.20;22.95;;;;;;;4.11;80.92;101419.90;1789747;80;22441;-73
2021/10/26 05:05:39;;;;;;;42.83;23.62;;;;;;;4.12;80.94;101414.79;1790356;80;21469;-73
2021/10/26 05:08:06;;;;;;;46.63;23.95;;;;;;;4.18;81.06;101419.48;1790010;80;20980;-73
2021/10/26 05:10:33;;;;;;;36.77;21.55;;;;;;;4.23;81.09;101416.76;1789983;80;21010;-71
2021/10/26 05:13:00;;;;;;;39.42;21.87;;;;;;;4.26;81.06;101413.02;1789916;80;21600;-72
2021/10/26 05:15:28;;;;;;;37.83;21.60;;;;;;;4.30;81.03;101421.55;1771527;80;22595;-80
2021/10/26 05:17:57;;;;;;;34.00;21.62;;;;;;;4.35;81.10;101423.11;1723920;82;21135;-73
2021/10/26 05:20:23;;;;;;;36.28;22.70;;;;;;;4.41;81.08;101428.69;1755306;80;21097;-73
2021/10/26 05:22:51;;;;;;;35.15;20.52;;;;;;;4.45;81.04;101421.58;1725493;81;21119;-73
2021/10/26 05:25:19;;;;;;;37.93;21.70;;;;;;;4.50;80.93;101424.45;1755963;80;21046;-74
2021/10/26 05:27:48;;;;;;;41.48;20.45;;;;;;;4.50;80.89;101430.55;1755689;80;21058;-73
2021/10/26 05:30:15;;;;;;;32.93;21.93;;;;;;;4.54;80.93;101433.83;1756074;80;21039;-73
2021/10/26 05:32:41;;;;;;;40.70;20.68;;;;;;;4.58;80.92;101430.63;1769116;81;21095;-73
2021/10/26 05:35:12;;;;;;;38.23;20.85;;;;;;;4.63;80.91;101431.78;1769245;81;21000;-73
2021/10/26 05:37:38;;;;;;;35.73;21.12;;;;;;;4.67;80.90;101436.41;1768944;80;21502;-73
2021/10/26 05:40:07;;;;;;;34.03;21.37;;;;;;;4.71;80.84;101440.47;1768812;80;22537;-73
2021/10/26 05:42:34;;;;;;;44.18;26.37;;;;;;;4.73;80.78;101447.60;1768688;81;21091;-73
2021/10/26 05:45:01;;;;;;;53.60;31.05;;;;;;;4.77;80.83;101451.30;1769018;80;21075;-73
2021/10/26 05:47:31;;;;;;;52.15;30.80;;;;;;;4.81;80.85;101452.86;1768961;81;20996;-73
2021/10/26 05:49:58;;;;;;;37.00;22.90;;;;;;;4.85;80.87;101454.83;1740098;81;21062;-73
2021/10/26 05:52:25;;;;;;;37.83;24.60;;;;;;;4.91;80.87;101449.49;1768781;81;21721;-73
2021/10/26 05:54:51;;;;;;;36.10;21.73;;;;;;;4.95;80.90;101446.25;1768613;81;21051;-73
2021/10/26 05:57:21;;;;;;;36.68;22.67;;;;;;;4.99;80.86;101446.53;1768394;80;21089;-73
2021/10/26 05:59:48;;;;;;;39.55;23.38;;;;;;;5.06;80.94;101451.27;1768619;81;21310;-73
2021/10/26 06:02:14;;;;;;;38.70;21.02;;;;;;;5.12;80.95;101453.76;1768836;81;21579;-73
2021/10/26 06:04:41;;;;;;;50.70;24.47;;;;;;;5.19;80.90;101458.53;1768613;80;21756;-74
2021/10/26 06:07:08;;;;;;;44.85;26.40;;;;;;;5.25;80.87;101458.88;1768608;81;20980;-73
2021/10/26 06:09:36;;;;;;;47.13;28.27;;;;;;;5.29;80.78;101462.15;1768807;81;21055;-73
2021/10/26 06:12:05;;;;;;;65.92;36.40;;;;;;;5.36;80.82;101460.80;1768731;81;21102;-73
2021/10/26 06:14:32;;;;;;;63.00;34.13;;;;;;;5.43;80.83;101463.85;1768832;81;21098;-73
2021/10/26 06:17:02;;;;;;;59.25;32.67;;;;;;;5.51;80.76;101459.48;1768808;81;21725;-74
2021/10/26 06:19:29;;;;;;;54.30;31.20;;;;;;;5.57;80.74;101464.63;1768720;80;21039;-73
2021/10/26 06:21:55;;;;;;;49.45;28.30;;;;;;;5.64;80.63;101461.97;1768626;80;21377;-73
2021/10/26 06:24:22;;;;;;;46.98;26.80;;;;;;;5.71;80.53;101467.14;1768748;80;21071;-73
2021/10/26 06:26:49;;;;;;;43.48;26.68;;;;;;;5.77;80.47;101464.86;1768699;81;21020;-73
2021/10/26 06:29:16;;;;;;;42.95;24.47;;;;;;;5.83;80.41;101467.81;1768622;80;21726;-73
2021/10/26 06:31:42;;;;;;;39.88;24.20;;;;;;;5.90;80.35;101466.03;1768587;81;21466;-73
2021/10/26 06:34:09;;;;;;;54.18;25.45;;;;;;;5.94;80.17;101465.38;1768744;81;21062;-73
2021/10/26 06:36:36;;;;;;;60.50;30.48;;;;;;;5.98;80.06;101469.99;1768733;80;21170;-73
2021/10/26 06:39:03;;;;;;;70.52;34.70;;;;;;;6.03;79.98;101471.56;1768860;80;21074;-73
2021/10/26 06:41:30;;;;;;;84.83;43.63;;;;;;;6.07;79.89;101475.25;1768815;81;21729;-73
2021/10/26 06:43:57;;;;;;;87.65;46.98;;;;;;;6.10;79.85;101467.55;1774447;79;21042;-74
2021/10/26 06:46:24;;;;;;;47.58;28.60;;;;;;;6.14;79.80;101473.05;1778155;80;21090;-73
2021/10/26 06:48:51;;;;;;;73.35;42.10;;;;;;;6.18;79.76;101465.86;1778151;80;21257;-74
2021/10/26 06:51:17;;;;;;;58.13;37.78;;;;;;;6.23;79.62;101473.94;1778179;80;21054;-73
2021/10/26 06:53:44;;;;;;;49.33;30.37;;;;;;;6.24;79.50;101474.45;1778231;80;21750;-73
2021/10/26 06:56:14;;;;;;;44.93;27.73;;;;;;;6.25;79.42;101463.57;1778237;80;21051;-74
2021/10/26 06:58:39;;;;;;;40.05;23.77;;;;;;;6.25;79.33;101464.49;1777866;80;21078;-73
2021/10/26 07:01:08;;;;;;;33.80;23.85;;;;;;;6.26;79.26;101467.58;1778348;80;21035;-73
2021/10/26 07:03:40;;;;;;;42.25;27.13;;;;;;;6.26;79.22;101471.92;1778281;80;21078;-73
2021/10/26 07:06:07;;;;;;;31.93;20.90;;;;;;;6.26;79.21;101472.81;1778382;80;21779;-74
2021/10/26 07:08:34;;;;;;;38.50;23.30;;;;;;;6.30;79.28;101455.58;1778347;80;21723;-74
2021/10/26 07:11:00;;;;;;;34.58;24.23;;;;;;;6.39;79.40;101463.91;1778357;80;21066;-73
2021/10/26 07:13:27;;;;;;;37.85;23.87;;;;;;;6.48;79.36;101458.28;1778541;80;21188;-73
2021/10/26 07:15:54;;;;;;;42.65;26.37;;;;;;;6.58;79.36;101461.86;1778322;80;21540;-74
2021/10/26 07:18:21;;;;;;;56.73;33.58;;;;;;;6.67;79.38;101464.95;1778187;80;21768;-73
2021/10/26 07:20:47;;;;;;;39.85;26.68;;;;;;;6.78;79.39;101458.56;1778006;80;21670;-74
2021/10/26 07:23:14;;;;;;;38.73;24.32;;;;;;;6.94;79.52;101455.42;1745973;80;21086;-73
2021/10/26 07:25:41;;;;;;;33.28;23.40;;;;;;;7.05;79.37;101463.41;1778231;80;21149;-73
2021/10/26 07:28:08;;;;;;;37.08;23.80;;;;;;;7.16;79.24;101463.53;1778362;80;21101;-73
2021/10/26 07:30:36;;;;;;;40.70;23.27;;;;;;;7.26;79.19;101462.69;1778311;80;22537;-74
2021/10/26 07:33:05;;;;;;;39.48;24.12;;;;;;;7.40;79.29;101459.05;1778238;80;21050;-73
2021/10/26 07:35:44;;;;;;;28.07;18.85;;;;;;;7.58;79.17;101452.09;1778251;80;21101;-73
2021/10/26 07:38:07;;;;;;;37.75;26.50;;;;;;;7.74;79.09;101458.05;1777056;80;22225;-73
2021/10/26 07:40:34;;;;;;;31.15;22.05;;;;;;;7.85;78.78;101465.13;1778240;80;21559;-72
2021/10/26 07:43:01;;;;;;;30.82;22.13;;;;;;;7.92;78.61;101452.38;1777016;80;22178;-72
2021/10/26 07:45:29;;;;;;;29.12;20.95;;;;;;;8.01;78.51;101449.27;1768506;81;21447;-73
2021/10/26 07:47:55;;;;;;;35.05;21.82;;;;;;;8.09;78.29;101456.17;1768666;81;21126;-73
2021/10/26 07:50:22;;;;;;;37.00;21.45;;;;;;;8.18;78.32;101444.41;1768818;80;21118;-73
2021/10/26 07:52:49;;;;;;;37.17;24.40;;;;;;;8.30;78.29;101445.38;1768837;80;21591;-73
2021/10/26 07:55:15;;;;;;;34.50;21.95;;;;;;;8.37;78.11;101451.39;1768660;81;21738;-72
2021/10/26 07:57:42;;;;;;;40.90;25.08;;;;;;;8.49;78.01;101458.05;1768610;81;21027;-72
2021/10/26 08:00:10;;;;;;;29.05;22.17;;;;;;;8.55;77.63;101455.69;1768651;80;21133;-73
2021/10/26 08:02:37;;;;;;;33.20;20.85;;;;;;;8.56;77.29;101443.95;1768635;80;21201;-72
2021/10/26 08:05:04;;;;;;;33.83;20.20;;;;;;;8.56;77.18;101444.38;1768390;80;21094;-73
2021/10/26 08:07:31;;;;;;;41.63;20.35;;;;;;;8.59;77.06;101447.12;1768528;80;21801;-72
2021/10/26 08:09:58;;;;;;;35.98;21.65;;;;;;;8.58;76.81;101451.91;1768483;80;21047;-73
2021/10/26 08:12:25;;;;;;;37.70;23.57;;;;;;;8.52;76.69;101447.28;1768579;80;21081;-73
2021/10/26 08:14:54;;;;;;;31.17;22.13;;;;;;;8.47;76.50;101443.55;1768371;80;21162;-72
2021/10/26 08:17:21;;;;;;;30.52;20.40;;;;;;;8.40;76.47;101441.44;1768746;81;21082;-72
2021/10/26 08:19:47;;;;;;;35.98;22.37;;;;;;;8.36;76.53;101444.75;1768572;81;21726;-73
2021/10/26 08:22:19;;;;;;;38.73;22.02;;;;;;;8.37;76.72;101439.97;1768449;81;21059;-72
2021/10/26 08:24:49;;;;;;;32.53;21.65;;;;;;;8.41;76.90;101447.56;1768085;81;21098;-72
2021/10/26 08:27:17;;;;;;;34.60;22.53;;;;;;;8.41;76.72;101441.94;1768746;80;21581;-72
2021/10/26 08:37:41;;;;;;;45.40;27.35;;;;;;;8.47;76.80;101439.61;1768575;81;21059;-72
2021/10/26 08:40:09;;;;;;;34.55;24.37;;;;;;;8.49;76.69;101435.75;1768780;80;21110;-72
2021/10/26 08:42:36;;;;;;;37.38;23.65;;;;;;;8.50;76.62;101433.59;1768686;81;21107;-72
2021/10/26 08:45:04;;;;;;;38.10;24.23;;;;;;;8.51;76.56;101429.73;1751322;80;21777;-72
2021/10/26 08:47:31;;;;;;;40.30;25.17;;;;;;;8.53;76.56;101425.86;1730411;82;21075;-72
2021/10/26 08:49:58;;;;;;;40.08;25.72;;;;;;;8.62;76.73;101434.14;1730703;82;21075;-72
2021/10/26 08:52:25;;;;;;;36.25;24.20;;;;;;;8.77;76.88;101434.34;1730622;82;21089;-73
2021/10/26 08:54:52;;;;;;;31.12;22.60;;;;;;;8.93;76.91;101435.06;1789822;80;21054;-72
2021/10/26 08:57:20;;;;;;;31.02;22.25;;;;;;;9.12;76.72;101433.19;1730801;82;22563;-72
2021/10/26 08:59:49;;;;;;;38.48;21.25;;;;;;;9.30;76.71;101436.58;1730690;82;21067;-72
2021/10/26 09:02:16;;;;;;;31.42;21.25;;;;;;;9.48;76.53;101433.81;1789845;80;21070;-73
2021/10/26 09:04:45;;;;;;;32.33;22.70;;;;;;;9.68;76.27;101438.96;1730501;82;21108;-72
2021/10/26 09:07:21;;;;;;;34.65;22.37;;;;;;;9.88;76.21;101443.70;1730828;82;21086;-72
2021/10/26 09:09:48;;;;;;;37.13;24.30;;;;;;;10.09;75.93;101437.94;1789818;80;22347;-72
2021/10/26 09:17:34;;;;;;;41.88;29.25;;;;;;;10.77;75.28;101433.84;1789592;80;21069;-73
2021/10/26 09:20:01;;;;;;;28.57;21.45;;;;;;;10.93;74.78;101433.09;1730695;82;21126;-74
2021/10/26 09:22:31;;;;;;;31.12;22.90;;;;;;;10.97;74.40;101430.59;1730739;82;21774;-73
2021/10/26 09:25:12;;;;;;;49.88;31.65;;;;;;;11.00;74.24;101430.71;1730719;82;21680;-74
2021/10/26 09:27:39;;;;;;;27.70;18.27;;;;;;;11.12;74.19;101422.32;1789851;80;21654;-74
2021/10/26 09:30:10;;;;;;;25.17;17.90;;;;;;;11.32;74.10;101416.80;1730703;82;21139;-74
2021/10/26 09:32:44;;;;;;;25.20;17.27;;;;;;;11.54;73.99;101414.44;1789908;80;21062;-73
2021/10/26 09:35:13;;;;;;;26.52;17.37;;;;;;;11.77;73.82;101419.10;1730847;81;22581;-74
2021/10/26 09:37:45;;;;;;;25.12;17.42;;;;;;;11.98;73.50;101422.45;1730638;81;21557;-74
2021/10/26 09:40:12;;;;;;;21.27;16.52;;;;;;;12.15;73.18;101425.58;1789491;80;21100;-74
2021/10/26 09:42:44;;;;;;;28.25;19.05;;;;;;;12.31;72.82;101413.70;1730710;82;21123;-74
2021/10/26 09:45:16;;;;;;;27.77;19.77;;;;;;;12.39;72.51;101406.03;1776475;80;21046;-74
2021/10/26 09:47:43;;;;;;;31.55;18.27;;;;;;;12.47;72.13;101408.45;1695416;83;22441;-74
2021/10/26 09:50:11;;;;;;;27.35;19.25;;;;;;;12.47;71.59;101400.96;1755717;81;21062;-74
2021/10/26 09:52:42;;;;;;;27.93;18.35;;;;;;;12.37;71.18;101403.75;1725568;81;21016;-74
2021/10/26 09:55:21;;;;;;;28.80;19.98;;;;;;;12.30;71.09;101399.17;1755920;81;21085;-74
2021/10/26 09:57:59;;;;;;;22.90;17.40;;;;;;;12.32;71.20;101389.55;1755787;81;21027;-74
2021/10/26 10:00:32;;;;;;;23.67;17.52;;;;;;;12.38;71.17;101378.71;1755834;80;21752;-74
2021/10/26 10:03:16;;;;;;;27.22;17.65;;;;;;;12.51;71.27;101381.27;1755788;81;21065;-74
2021/10/26 10:05:54;;;;;;;30.50;21.87;;;;;;;12.72;71.12;101381.38;1768703;79;21019;-74
2021/10/26 10:08:37;;;;;;;26.77;17.77;;;;;;;12.91;70.99;101384.95;1768866;80;21066;-74
2021/10/26 10:11:20;;;;;;;23.32;17.15;;;;;;;13.14;70.83;101392.16;1769012;80;21067;-74
2021/10/26 10:13:54;;;;;;;28.17;19.37;;;;;;;13.33;70.63;101396.17;1768941;81;21743;-74
2021/10/26 10:16:21;;;;;;;26.07;18.17;;;;;;;13.51;70.35;101402.30;1768835;81;21046;-74
2021/10/26 10:18:48;;;;;;;23.60;16.55;;;;;;;13.66;70.00;101399.13;1768877;80;20992;-74
2021/10/26 10:21:17;;;;;;;23.87;15.80;;;;;;;13.74;69.64;101398.89;1768933;81;21585;-74
2021/10/26 10:23:48;;;;;;;21.27;15.05;;;;;;;13.82;69.17;101400.82;1768993;80;21094;-74
2021/10/26 10:26:15;;;;;;;19.92;14.50;;;;;;;13.78;69.05;101392.80;1768890;80;21740;-74
2021/10/26 10:28:46;;;;;;;16.32;11.78;;;;;;;13.85;69.03;101393.84;1768310;80;21589;-74
2021/10/26 10:31:16;;;;;;;20.27;11.68;;;;;;;13.93;68.67;101393.56;1768616;80;21050;-74
2021/10/26 10:33:44;;;;;;;18.00;10.93;;;;;;;14.04;68.47;101390.24;1768628;80;21527;-74
2021/10/26 10:36:12;;;;;;;22.95;11.83;;;;;;;14.08;68.03;101384.17;1768539;81;21066;-74
2021/10/26 10:38:39;;;;;;;16.25;10.65;;;;;;;14.09;67.81;101386.83;1768780;80;21754;-74
2021/10/26 10:41:32;;;;;;;16.27;10.50;;;;;;;14.03;67.33;101388.47;1768760;81;21058;-74
2021/10/26 10:44:08;;;;;;;24.55;12.43;;;;;;;13.87;66.90;101386.83;1768883;79;21055;-73
2021/10/26 10:46:43;;;;;;;15.38;12.07;;;;;;;13.70;66.76;101385.54;1768490;81;21000;-74
2021/10/26 10:49:36;;;;;;;17.95;11.68;;;;;;;13.56;66.74;101386.13;1768614;80;21607;-74
2021/10/26 10:52:10;;;;;;;18.77;12.20;;;;;;;13.43;66.65;101386.70;1767788;80;22823;-74
2021/10/26 10:57:34;;;;;;;17.60;12.75;;;;;;;13.15;66.77;101387.31;1768904;81;21231;-72
2021/10/26 11:00:24;;;;;;;18.75;13.25;;;;;;;13.08;66.75;101388.45;1768747;80;21094;-72
2021/10/26 11:02:53;;;;;;;18.55;12.50;;;;;;;12.96;66.74;101388.61;1768760;81;21106;-72
2021/10/26 11:05:37;;;;;;;19.10;13.25;;;;;;;12.85;66.80;101387.44;1768480;81;21806;-72
2021/10/26 11:08:14;;;;;;;21.00;14.03;;;;;;;12.78;66.79;101382.84;1768472;80;21145;-72
2021/10/26 11:10:59;;;;;;;23.38;15.98;;;;;;;12.72;66.82;101376.98;1768690;81;21636;-72
2021/10/26 11:13:29;;;;;;;29.00;19.00;;;;;;;12.64;66.90;101374.58;1768819;81;21056;-72
2021/10/26 11:16:03;;;;;;;46.85;29.77;;;;;;;12.56;66.82;101376.13;1768761;81;21117;-72
2021/10/26 11:18:49;;;;;;;28.27;19.77;;;;;;;12.49;66.92;101380.34;1768433;80;21822;-72
2021/10/26 11:21:27;;;;;;;47.23;27.22;;;;;;;12.45;66.95;101373.19;1768638;81;20988;-72
2021/10/26 11:24:04;;;;;;;45.10;26.40;;;;;;;12.39;67.05;101371.71;1768391;81;21066;-72
2021/10/26 11:26:43;;;;;;;31.37;19.02;;;;;;;12.35;66.95;101368.49;1768654;80;21047;-72
2021/10/26 11:29:16;;;;;;;87.08;45.10;;;;;;;12.26;66.94;101371.80;1766105;81;21122;-72
2021/10/26 11:31:46;;;;;;;42.77;25.97;;;;;;;12.18;67.03;101367.62;1738663;81;22688;-72
2021/10/26 11:34:25;;;;;;;46.18;25.62;;;;;;;11.99;66.95;101342.86;1768583;80;21870;-72
2021/10/26 11:37:02;;;;;;;55.95;32.58;;;;;;;12.05;67.24;101366.38;1768664;81;21086;-72
2021/10/26 11:39:29;;;;;;;65.47;39.63;;;;;;;12.00;67.33;101367.09;1768550;80;21182;-72